Weather at Sugar Valley Airport

Public forecast

Using degrees Fahrenheit for public forecast. Weather courtesy of forecast.io.

Closest aviation weather report (METAR) to Sugar Valley Airport

Closest report is Davidson County Executive Airport, 15.8 nm (29.3 km) SE.

2024/06/18 21:05 (retrieved 31 minutes ago)

KEXX 182105Z AUTO 14005KT 10SM SCT049 SCT055 30/19 A3022 RMK AO2 T03000187

Closest aviation forecast (TAF) to Sugar Valley Airport

Closest forecast is Smith Reynolds Airport, 16.7 nm (30.9 km) ENE.

2024/06/18 18:34 (retrieved 3 hours ago)

TAF KINT 181731Z 1818/1918 11005KT P6SM SCT050 BKN250